Time;durP1;ratioP1;P1;durP2;ratioP2;P2;SDS_P1;SDS_P2;PMS_P1;PMS_P2;Temp;Humidity;BMP_temperature;BMP_pressure;BME280_temperature;BME280_humidity;BME280_pressure;Samples;Min_cycle;Max_cycle;Signal;HPM_P1;HPM_P2
2022/08/05 00:01:32;;;;;;;5.78;1.00;;;18.20;64.70;;;;;;4977970;28;20065;-81
2022/08/05 00:04:18;;;;;;;8.68;1.20;;;18.20;64.70;;;;;;4996401;28;20488;-81
2022/08/05 00:06:45;;;;;;;9.10;1.08;;;18.20;64.80;;;;;;4979072;28;20061;-81
2022/08/05 00:09:18;;;;;;;8.10;1.15;;;18.10;64.80;;;;;;4977715;28;20054;-80
2022/08/05 00:11:47;;;;;;;7.53;1.02;;;18.10;64.80;;;;;;4995874;28;20050;-80
2022/08/05 00:14:26;;;;;;;8.10;1.33;;;18.00;64.80;;;;;;4994877;28;20053;-80
2022/08/05 00:16:58;;;;;;;8.00;1.38;;;18.00;64.90;;;;;;4996134;28;20054;-81
2022/08/05 00:19:29;;;;;;;6.07;0.90;;;18.00;65.10;;;;;;4978876;28;20069;-80
2022/08/05 00:22:01;;;;;;;9.30;1.10;;;17.90;65.20;;;;;;4977581;28;20485;-81
2022/08/05 00:24:29;;;;;;;8.10;1.00;;;17.90;65.30;;;;;;4996073;28;20061;-80
2022/08/05 00:26:58;;;;;;;5.85;1.10;;;17.70;65.30;;;;;;4995997;28;20046;-80
2022/08/05 00:29:26;;;;;;;6.68;1.05;;;17.80;65.40;;;;;;4977782;28;20465;-80
2022/08/05 00:32:05;;;;;;;4.72;0.98;;;17.70;65.40;;;;;;4978821;28;20507;-80
2022/08/05 00:34:43;;;;;;;5.75;1.02;;;17.60;65.60;;;;;;4994863;28;20050;-81
2022/08/05 00:37:31;;;;;;;6.30;1.20;;;17.60;65.70;;;;;;4996038;28;20042;-80
2022/08/05 00:40:23;;;;;;;5.38;1.20;;;17.50;65.90;;;;;;4981387;28;20077;-80
2022/08/05 00:43:00;;;;;;;6.45;1.40;;;17.50;66.10;;;;;;4994513;28;20465;-81
2022/08/05 00:45:29;;;;;;;7.13;1.50;;;17.40;66.20;;;;;;4978984;28;20042;-81
2022/08/05 00:48:16;;;;;;;12.43;1.33;;;17.40;66.20;;;;;;4994530;28;20061;-80
2022/08/05 00:50:46;;;;;;;7.47;1.20;;;17.40;66.30;;;;;;4978593;28;20053;-81
2022/08/05 00:53:20;;;;;;;5.38;1.15;;;17.30;66.30;;;;;;4995375;28;20054;-81
2022/08/05 00:56:10;;;;;;;5.38;1.50;;;17.30;66.40;;;;;;5007392;28;20385;-81
2022/08/05 00:58:38;;;;;;;10.00;1.50;;;17.30;66.50;;;;;;5014961;28;20054;-80
2022/08/05 01:01:10;;;;;;;4.82;1.08;;;17.30;66.60;;;;;;5013768;28;20294;-80
2022/08/05 01:03:39;;;;;;;8.13;0.90;;;17.30;66.90;;;;;;5015443;28;20045;-81
2022/08/05 01:06:07;;;;;;;7.40;0.85;;;17.30;66.80;;;;;;5013942;28;20057;-81
2022/08/05 01:08:41;;;;;;;7.25;1.02;;;17.30;66.70;;;;;;5014112;28;20038;-80
2022/08/05 01:11:23;;;;;;;3.35;0.80;;;17.30;66.60;;;;;;5014929;28;20050;-80
2022/08/05 01:14:33;;;;;;;7.05;0.98;;;17.20;66.70;;;;;;5015027;28;20046;-81
2022/08/05 01:17:07;;;;;;;7.80;0.93;;;17.20;66.80;;;;;;5014334;28;20045;-81
2022/08/05 01:20:18;;;;;;;9.27;1.10;;;17.10;67.20;;;;;;5014701;28;20042;-80
2022/08/05 01:23:38;;;;;;;8.30;0.90;;;17.10;67.20;;;;;;5000738;28;20373;-81
2022/08/05 01:26:25;;;;;;;8.82;1.17;;;17.00;66.90;;;;;;4997336;28;20061;-80
2022/08/05 01:28:59;;;;;;;6.10;1.00;;;16.90;67.00;;;;;;5013173;28;20046;-80
2022/08/05 01:31:57;;;;;;;6.38;0.90;;;16.90;67.00;;;;;;5014809;28;20042;-80
2022/08/05 01:34:30;;;;;;;4.22;0.70;;;16.80;67.00;;;;;;5013672;28;20369;-81
2022/08/05 01:37:06;;;;;;;5.75;0.88;;;16.80;67.00;;;;;;5014587;28;20053;-81
2022/08/05 01:39:37;;;;;;;8.43;1.00;;;16.70;67.00;;;;;;4997695;28;20060;-81
2022/08/05 01:42:19;;;;;;;4.63;0.75;;;16.70;67.00;;;;;;5013925;28;20462;-80
2022/08/05 01:44:48;;;;;;;6.82;0.88;;;16.60;67.10;;;;;;5013956;28;20038;-80
2022/08/05 01:47:22;;;;;;;3.00;0.77;;;16.60;67.10;;;;;;5013857;28;20492;-80
2022/08/05 01:50:09;;;;;;;6.38;0.80;;;16.60;67.30;;;;;;5014171;28;20485;-80
2022/08/05 01:52:45;;;;;;;5.32;0.80;;;16.60;67.40;;;;;;5014669;28;20050;-80
2022/08/05 01:55:21;;;;;;;5.70;0.90;;;16.60;67.40;;;;;;5003241;28;20050;-80
2022/08/05 01:57:51;;;;;;;4.95;0.90;;;16.60;67.50;;;;;;4994952;28;20050;-80
2022/08/05 02:00:48;;;;;;;6.90;0.80;;;16.50;67.60;;;;;;4977696;28;20042;-80
2022/08/05 02:03:23;;;;;;;6.53;0.90;;;16.50;67.70;;;;;;4994695;28;20047;-79
2022/08/05 02:06:00;;;;;;;6.28;0.80;;;16.50;67.80;;;;;;4994689;28;20043;-80
2022/08/05 02:08:48;;;;;;;4.68;0.80;;;16.40;67.90;;;;;;4980400;28;20091;-80
2022/08/05 02:11:34;;;;;;;2.70;0.60;;;16.40;68.10;;;;;;4998502;28;20058;-80
2022/08/05 02:14:13;;;;;;;7.32;0.80;;;16.40;68.40;;;;;;4998063;28;20062;-80
2022/08/05 02:16:54;;;;;;;7.78;0.90;;;16.40;68.50;;;;;;4998106;28;20377;-80
2022/08/05 02:19:31;;;;;;;6.75;0.80;;;16.40;68.80;;;;;;4998410;28;20050;-80
2022/08/05 02:22:24;;;;;;;6.28;0.90;;;16.30;68.80;;;;;;4997025;28;20046;-79
2022/08/05 02:25:16;;;;;;;5.30;0.93;;;16.30;69.10;;;;;;4997770;28;20050;-81
2022/08/05 02:27:47;;;;;;;7.00;1.00;;;16.30;69.60;;;;;;4979172;28;20053;-80
2022/08/05 02:30:32;;;;;;;3.53;0.90;;;16.30;69.30;;;;;;4998109;28;20465;-80
2022/08/05 02:33:03;;;;;;;5.45;0.95;;;16.20;70.00;;;;;;4980708;28;20050;-80
2022/08/05 02:35:34;;;;;;;5.97;0.93;;;16.20;69.90;;;;;;4980100;28;20480;-80
2022/08/05 02:38:12;;;;;;;6.97;0.77;;;16.20;70.10;;;;;;4997952;28;20046;-80
2022/08/05 02:40:46;;;;;;;6.85;0.93;;;16.10;70.30;;;;;;4997757;28;20389;-80
2022/08/05 02:43:16;;;;;;;5.05;0.80;;;16.10;70.30;;;;;;4979865;28;20042;-80
2022/08/05 02:45:46;;;;;;;4.40;0.77;;;16.10;70.40;;;;;;4997691;28;20058;-80
2022/08/05 02:48:24;;;;;;;3.67;0.70;;;16.10;70.80;;;;;;4979065;28;20050;-80
2022/08/05 02:50:59;;;;;;;6.50;1.00;;;16.10;70.70;;;;;;4980530;28;20053;-80
2022/08/05 02:53:30;;;;;;;4.45;0.95;;;16.10;70.80;;;;;;4980564;28;20069;-80
2022/08/05 02:56:11;;;;;;;2.92;0.60;;;16.10;70.90;;;;;;4994233;28;20088;-80
2022/08/05 02:58:47;;;;;;;7.28;1.10;;;16.00;71.00;;;;;;5017308;28;20049;-80
2022/08/05 03:01:22;;;;;;;5.78;0.93;;;16.00;71.00;;;;;;5015938;28;20053;-80
2022/08/05 03:04:00;;;;;;;2.97;0.80;;;16.00;71.20;;;;;;5017087;28;20492;-80
2022/08/05 03:06:31;;;;;;;4.20;0.80;;;16.00;71.40;;;;;;5017259;28;20053;-80
2022/08/05 03:09:19;;;;;;;7.47;0.80;;;16.00;71.40;;;;;;5015985;28;20396;-80
2022/08/05 03:12:07;;;;;;;3.28;0.80;;;15.90;71.40;;;;;;5015944;28;20046;-80
2022/08/05 03:14:39;;;;;;;5.95;0.90;;;16.00;71.60;;;;;;5015748;28;20056;-80
2022/08/05 03:17:12;;;;;;;4.18;0.85;;;15.90;71.80;;;;;;5015899;28;20469;-80
2022/08/05 03:19:40;;;;;;;6.78;0.68;;;15.90;71.80;;;;;;5015753;28;20060;-80
2022/08/05 03:22:13;;;;;;;7.03;0.95;;;15.90;71.80;;;;;;5015593;28;20057;-80
2022/08/05 03:24:44;;;;;;;5.63;1.02;;;15.90;71.90;;;;;;5016361;28;20081;-80
2022/08/05 03:27:21;;;;;;;5.75;0.98;;;15.90;71.90;;;;;;5016884;28;20050;-80
2022/08/05 03:29:57;;;;;;;4.30;0.80;;;15.90;72.00;;;;;;5016893;28;20049;-80
2022/08/05 03:32:36;;;;;;;4.07;0.93;;;15.80;72.10;;;;;;5015812;28;20061;-80
2022/08/05 03:35:05;;;;;;;2.45;0.80;;;15.70;72.00;;;;;;5015380;28;20354;-80
2022/08/05 03:37:36;;;;;;;6.72;1.00;;;15.70;72.00;;;;;;5016241;28;20050;-80
2022/08/05 03:40:13;;;;;;;2.80;0.70;;;15.60;72.00;;;;;;5015877;28;20054;-80
2022/08/05 03:42:51;;;;;;;5.10;0.70;;;15.60;72.00;;;;;;5015377;28;20037;-80
2022/08/05 03:45:20;;;;;;;5.20;0.80;;;15.60;72.00;;;;;;5015278;28;20050;-80
2022/08/05 03:47:50;;;;;;;8.52;0.90;;;15.60;72.00;;;;;;5014859;28;20197;-80
2022/08/05 03:50:27;;;;;;;6.53;1.20;;;15.50;72.00;;;;;;5016530;28;20055;-80
2022/08/05 03:53:13;;;;;;;7.82;0.90;;;15.50;71.90;;;;;;5015922;28;20056;-81
2022/08/05 03:56:22;;;;;;;5.82;1.10;;;15.50;72.40;;;;;;5013788;28;20054;-81
2022/08/05 03:59:06;;;;;;;6.70;0.80;;;15.40;72.40;;;;;;5015398;28;20380;-81
2022/08/05 04:01:39;;;;;;;3.53;0.80;;;15.40;72.40;;;;;;4997888;28;20302;-81
2022/08/05 04:04:11;;;;;;;10.65;1.00;;;15.40;72.20;;;;;;5015976;28;20046;-81
2022/08/05 04:06:44;;;;;;;5.82;1.00;;;15.40;72.30;;;;;;5014968;28;20049;-81
2022/08/05 04:09:18;;;;;;;6.75;0.90;;;15.40;72.30;;;;;;5014089;28;20468;-81
2022/08/05 04:11:54;;;;;;;7.40;1.00;;;15.40;72.40;;;;;;5016055;28;20057;-81
2022/08/05 04:14:29;;;;;;;6.88;1.00;;;15.40;72.50;;;;;;4997856;28;20069;-81
2022/08/05 04:16:59;;;;;;;6.22;1.00;;;15.40;72.80;;;;;;5014684;28;20038;-81
2022/08/05 04:19:28;;;;;;;6.78;1.20;;;15.40;72.80;;;;;;5015269;28;20058;-81
2022/08/05 04:21:55;;;;;;;2.97;0.80;;;15.40;72.90;;;;;;5014539;28;20046;-81
2022/08/05 04:24:43;;;;;;;4.63;0.80;;;15.30;73.00;;;;;;5015495;28;20049;-81
2022/08/05 04:27:19;;;;;;;5.68;0.80;;;15.30;73.40;;;;;;5014437;28;20056;-81
2022/08/05 04:30:09;;;;;;;9.60;1.20;;;15.30;73.50;;;;;;5014940;28;20049;-81
2022/08/05 04:32:36;;;;;;;7.05;1.08;;;15.20;73.80;;;;;;5014605;28;20041;-81
2022/08/05 04:35:06;;;;;;;5.85;1.00;;;15.20;73.90;;;;;;5013389;28;20396;-81
2022/08/05 04:37:44;;;;;;;6.70;0.80;;;15.20;74.00;;;;;;5014235;28;20049;-81
2022/08/05 04:40:34;;;;;;;7.22;0.90;;;15.10;74.20;;;;;;5014234;28;20038;-81
2022/08/05 04:43:02;;;;;;;6.68;1.00;;;15.10;74.50;;;;;;5013149;28;20046;-81
2022/08/05 04:45:31;;;;;;;5.35;0.90;;;15.00;74.40;;;;;;5015325;28;20042;-81
2022/08/05 04:48:19;;;;;;;6.93;1.30;;;14.90;74.70;;;;;;5013973;28;20456;-81
2022/08/05 04:50:55;;;;;;;6.32;1.00;;;14.90;74.90;;;;;;4999462;28;20065;-80
2022/08/05 04:53:38;;;;;;;6.88;1.40;;;14.80;74.90;;;;;;5015475;28;20050;-81
2022/08/05 04:56:07;;;;;;;5.85;1.20;;;14.70;75.20;;;;;;5013170;28;20054;-81
2022/08/05 04:58:55;;;;;;;7.68;1.20;;;14.60;75.50;;;;;;5014884;28;20049;-81
2022/08/05 05:01:23;;;;;;;7.53;1.23;;;14.50;75.60;;;;;;5014412;28;20041;-81
2022/08/05 05:04:10;;;;;;;8.43;1.23;;;14.40;75.80;;;;;;5015075;28;20034;-81
2022/08/05 05:06:41;;;;;;;8.10;1.20;;;14.40;76.10;;;;;;5015027;28;20038;-81
2022/08/05 05:09:12;;;;;;;8.40;1.10;;;14.30;76.60;;;;;;5013701;28;20045;-81
2022/08/05 05:11:45;;;;;;;5.60;1.45;;;14.20;76.90;;;;;;5014467;28;20046;-81
2022/08/05 05:14:36;;;;;;;5.47;1.10;;;14.20;77.00;;;;;;5013557;28;20061;-81
2022/08/05 05:17:15;;;;;;;6.13;1.00;;;14.10;77.70;;;;;;5013410;28;20064;-81
2022/08/05 05:19:53;;;;;;;6.97;1.15;;;14.20;77.70;;;;;;5013892;28;20060;-81
2022/08/05 05:22:25;;;;;;;7.43;1.40;;;14.10;77.30;;;;;;5028997;28;20488;-81
2022/08/05 05:24:54;;;;;;;4.55;1.20;;;14.30;78.00;;;;;;5014793;28;20053;-81
2022/08/05 05:27:27;;;;;;;8.00;1.30;;;14.30;77.60;;;;;;4998325;28;20061;-81
2022/08/05 05:30:15;;;;;;;8.73;1.17;;;14.30;77.10;;;;;;5014295;28;20471;-81
2022/08/05 05:33:06;;;;;;;8.32;1.27;;;14.30;77.30;;;;;;5014267;28;20342;-81
2022/08/05 05:35:45;;;;;;;8.80;1.40;;;14.30;77.40;;;;;;5012745;28;20046;-81
2022/08/05 05:38:16;;;;;;;7.50;1.20;;;14.30;77.60;;;;;;4997817;28;20042;-81
2022/08/05 05:40:58;;;;;;;4.55;0.90;;;14.20;77.30;;;;;;5014063;28;20500;-81
2022/08/05 05:43:26;;;;;;;4.85;1.30;;;14.10;77.20;;;;;;5018277;28;20041;-81
2022/08/05 05:46:14;;;;;;;7.97;1.25;;;14.20;77.50;;;;;;5018684;28;20038;-81
2022/08/05 05:48:48;;;;;;;9.57;1.10;;;14.20;77.40;;;;;;5017205;28;20052;-81
2022/08/05 05:51:22;;;;;;;8.35;1.27;;;14.10;77.20;;;;;;5017872;28;20054;-81
2022/08/05 05:53:52;;;;;;;9.32;1.45;;;14.20;77.00;;;;;;5016592;28;20046;-81
2022/08/05 05:56:30;;;;;;;12.05;1.40;;;14.20;76.70;;;;;;5001026;28;20060;-81
2022/08/05 05:59:09;;;;;;;6.40;1.20;;;14.20;76.40;;;;;;5001659;28;20053;-81
2022/08/05 06:02:02;;;;;;;7.63;1.20;;;14.30;76.90;;;;;;5017376;28;20046;-81
2022/08/05 06:05:23;;;;;;;6.70;1.20;;;14.00;75.90;;;;;;5017569;28;20053;-81
2022/08/05 06:08:05;;;;;;;5.25;1.20;;;15.30;76.40;;;;;;5007066;28;20382;-81
2022/08/05 06:10:35;;;;;;;7.97;1.30;;;14.40;76.60;;;;;;5017464;28;20358;-81
2022/08/05 06:13:21;;;;;;;8.02;1.65;;;14.40;75.90;;;;;;5017120;28;20064;-81
2022/08/05 06:15:56;;;;;;;10.52;2.75;;;14.40;76.20;;;;;;5016886;28;20045;-81
2022/08/05 06:19:16;;;;;;;8.40;1.25;;;14.40;76.30;;;;;;5017274;28;20042;-81
2022/08/05 06:22:06;;;;;;;9.30;1.23;;;14.40;76.10;;;;;;5015563;28;20042;-81
2022/08/05 06:24:43;;;;;;;5.40;0.98;;;14.40;76.10;;;;;;5001029;28;20049;-81
2022/08/05 06:27:15;;;;;;;6.35;1.20;;;14.40;76.10;;;;;;5016705;28;20046;-81
2022/08/05 06:30:07;;;;;;;6.80;1.23;;;14.50;76.20;;;;;;5017583;28;20056;-81
2022/08/05 06:32:47;;;;;;;8.32;1.20;;;14.60;76.00;;;;;;5017683;28;20046;-81
2022/08/05 06:35:18;;;;;;;5.13;1.30;;;13.40;75.40;;;;;;5016679;28;20053;-81
2022/08/05 06:38:19;;;;;;;9.95;1.42;;;14.60;75.70;;;;;;5017717;28;20368;-81
2022/08/05 06:41:04;;;;;;;8.52;1.30;;;14.60;75.50;;;;;;5016655;28;20056;-81
2022/08/05 06:43:38;;;;;;;7.38;1.67;;;14.70;75.30;;;;;;5016547;28;20046;-81
2022/08/05 06:46:28;;;;;;;9.60;1.48;;;14.70;75.80;;;;;;5000342;28;20045;-81
2022/08/05 06:49:03;;;;;;;10.13;1.30;;;14.80;75.20;;;;;;5016122;28;20373;-81
2022/08/05 06:52:12;;;;;;;7.50;1.30;;;14.70;75.30;;;;;;5015760;28;20054;-81
2022/08/05 06:55:02;;;;;;;9.30;1.30;;;14.80;75.20;;;;;;5008059;28;20050;-81
2022/08/05 06:57:31;;;;;;;8.55;1.52;;;14.10;75.10;;;;;;4997400;28;20046;-81
2022/08/05 07:00:19;;;;;;;6.75;1.08;;;14.90;75.20;;;;;;4980478;28;20063;-81
2022/08/05 07:02:58;;;;;;;6.53;1.20;;;14.90;74.80;;;;;;4996544;28;20370;-81
2022/08/05 07:09:01;;;;;;;6.78;1.23;;;14.90;74.80;;;;;;4980286;28;20849;-83
2022/08/05 07:11:51;;;;;;;7.45;1.00;;;14.90;74.50;;;;;;4980232;28;20049;-82
2022/08/05 07:18:15;;;;;;;8.90;1.10;;;15.00;74.00;;;;;;4979670;28;20069;-78
2022/08/05 07:20:55;;;;;;;5.38;1.10;;;15.10;74.00;;;;;;4978615;28;20046;-77
2022/08/05 07:23:23;;;;;;;5.00;1.00;;;15.20;73.40;;;;;;4996530;28;20512;-77
2022/08/05 07:25:56;;;;;;;8.75;1.00;;;15.20;73.10;;;;;;4996606;28;20050;-76
2022/08/05 07:28:25;;;;;;;8.85;1.60;;;15.20;73.20;;;;;;4995606;28;20061;-72
2022/08/05 07:30:52;;;;;;;6.93;1.35;;;15.30;72.90;;;;;;4996442;28;20054;-75
2022/08/05 07:33:21;;;;;;;9.13;1.23;;;15.30;72.50;;;;;;4978005;28;20065;-80
2022/08/05 07:36:05;;;;;;;6.40;1.13;;;15.40;72.60;;;;;;4989876;28;20042;-80
2022/08/05 07:38:48;;;;;;;9.45;1.23;;;15.40;72.50;;;;;;4996383;28;20377;-75
2022/08/05 07:41:23;;;;;;;9.18;1.27;;;15.50;71.80;;;;;;4993891;28;20058;-76
2022/08/05 07:44:10;;;;;;;6.32;1.05;;;15.50;70.80;;;;;;4982445;28;20042;-76
2022/08/05 07:46:47;;;;;;;6.70;0.88;;;15.60;70.20;;;;;;4979836;28;20061;-76
2022/08/05 07:49:17;;;;;;;8.70;1.20;;;15.70;69.80;;;;;;4995357;28;20053;-75
2022/08/05 07:51:45;;;;;;;8.23;1.20;;;15.70;69.60;;;;;;4963572;28;20058;-75
2022/08/05 07:54:27;;;;;;;6.53;1.25;;;15.80;69.80;;;;;;4995293;28;20054;-75
2022/08/05 07:56:58;;;;;;;6.30;1.10;;;15.80;69.60;;;;;;4996418;28;20389;-76
2022/08/05 07:59:46;;;;;;;11.82;1.35;;;15.80;69.50;;;;;;4979178;28;20046;-75
2022/08/05 08:02:16;;;;;;;8.73;1.10;;;15.90;69.50;;;;;;4995089;28;20046;-75
2022/08/05 08:04:45;;;;;;;;;;;15.90;69.80;;;;;;4979316;28;20050;-78
2022/08/05 08:07:13;;;;;;;5.18;1.02;;;16.00;70.20;;;;;;4996311;28;19922;-74
2022/08/05 08:09:42;;;;;;;4.68;0.90;;;16.10;69.50;;;;;;4995268;28;20441;-74
2022/08/05 08:12:12;;;;;;;8.20;1.38;;;16.10;69.70;;;;;;4979288;28;20054;-75
2022/08/05 08:15:00;;;;;;;12.80;1.40;;;16.20;69.90;;;;;;4995304;28;20042;-78
2022/08/05 08:17:31;;;;;;;11.35;1.23;;;16.20;69.80;;;;;;4963631;28;20057;-78
2022/08/05 08:20:04;;;;;;;7.68;1.20;;;16.20;69.80;;;;;;4996119;28;20046;-79
2022/08/05 08:23:01;;;;;;;9.98;1.40;;;16.30;69.60;;;;;;4994699;28;20114;-78
2022/08/05 08:25:30;;;;;;;10.55;1.38;;;16.40;69.20;;;;;;4978889;28;20049;-78
2022/08/05 08:28:17;;;;;;;;;;;16.50;69.60;;;;;;4994362;28;20050;-78
2022/08/05 08:31:06;;;;;;;10.88;1.50;;;16.80;69.10;;;;;;4981321;28;19922;-79
2022/08/05 08:33:37;;;;;;;6.88;1.25;;;16.60;68.80;;;;;;4995815;28;20069;-78
2022/08/05 08:36:10;;;;;;;9.27;1.25;;;16.60;68.90;;;;;;4977777;28;20042;-78
2022/08/05 08:38:58;;;;;;;5.22;0.98;;;16.70;69.10;;;;;;4995887;28;20055;-78
2022/08/05 08:41:32;;;;;;;6.80;1.45;;;16.70;68.70;;;;;;4994505;28;20050;-78
2022/08/05 08:44:30;;;;;;;9.40;1.20;;;16.70;68.90;;;;;;4995980;28;20457;-78
2022/08/05 08:47:26;;;;;;;3.75;0.90;;;16.80;67.90;;;;;;4981934;28;20050;-78
2022/08/05 08:50:18;;;;;;;5.32;1.05;;;16.90;67.70;;;;;;4978807;28;20369;-79
2022/08/05 08:53:09;;;;;;;7.75;1.15;;;16.90;67.30;;;;;;4978842;28;20066;-78
2022/08/05 08:55:40;;;;;;;7.28;1.20;;;16.90;67.00;;;;;;5000210;28;20420;-79
2022/08/05 08:58:28;;;;;;;8.43;1.40;;;17.10;67.00;;;;;;5013957;28;20049;-79
2022/08/05 09:01:11;;;;;;;5.10;1.10;;;17.20;66.90;;;;;;5013476;28;20214;-79
2022/08/05 09:03:50;;;;;;;6.63;0.98;;;17.20;66.90;;;;;;5015113;28;20461;-79
2022/08/05 09:06:25;;;;;;;7.55;1.10;;;17.30;66.10;;;;;;5014256;28;20060;-78
2022/08/05 09:09:05;;;;;;;5.72;1.20;;;17.40;66.60;;;;;;5013155;28;20061;-79
2022/08/05 09:11:35;;;;;;;8.88;1.10;;;17.90;66.60;;;;;;5014380;28;20056;-78
2022/08/05 09:14:32;;;;;;;6.82;1.15;;;17.50;66.20;;;;;;5013181;28;20465;-78
2022/08/05 09:17:23;;;;;;;8.68;1.30;;;17.40;66.40;;;;;;5019070;28;20053;-78
2022/08/05 09:20:11;;;;;;;8.77;1.50;;;17.50;66.70;;;;;;5018834;28;20050;-79
2022/08/05 09:23:07;;;;;;;8.32;1.20;;;17.60;67.00;;;;;;5017082;28;20049;-77
2022/08/05 09:25:42;;;;;;;8.27;1.25;;;17.80;66.00;;;;;;5018311;28;20046;-75
2022/08/05 09:28:34;;;;;;;5.60;0.90;;;17.80;65.30;;;;;;5017634;28;20528;-75
2022/08/05 09:31:10;;;;;;;5.28;1.30;;;18.90;65.90;;;;;;5017698;28;20373;-79
2022/08/05 09:34:05;;;;;;;5.95;0.88;;;17.90;65.20;;;;;;5017852;28;20054;-72
2022/08/05 09:36:45;;;;;;;3.80;0.88;;;18.00;65.00;;;;;;5017487;28;20052;-79
2022/08/05 09:39:23;;;;;;;10.98;1.17;;;18.00;64.90;;;;;;5002574;28;20072;-73
2022/08/05 09:42:14;;;;;;;6.82;1.00;;;18.10;64.70;;;;;;5016658;28;20046;-79
2022/08/05 09:44:55;;;;;;;6.38;1.20;;;18.10;63.40;;;;;;5018330;28;20057;-77
2022/08/05 09:47:30;;;;;;;5.82;1.05;;;18.20;63.30;;;;;;5018028;28;20049;-74
2022/08/05 09:50:21;;;;;;;5.35;1.10;;;18.30;63.20;;;;;;5017336;28;20053;-78
2022/08/05 09:53:09;;;;;;;6.22;0.80;;;18.30;63.70;;;;;;5018037;28;20400;-74
2022/08/05 09:55:59;;;;;;;3.97;0.75;;;18.40;62.60;;;;;;5016988;28;20456;-78
2022/08/05 09:58:40;;;;;;;6.38;1.30;;;18.50;61.40;;;;;;5017927;28;20065;-79
2022/08/05 10:01:12;;;;;;;7.15;1.23;;;18.50;61.70;;;;;;5017024;28;20057;-79
2022/08/05 10:04:03;;;;;;;6.25;1.15;;;18.50;61.50;;;;;;5017089;28;20049;-77
2022/08/05 10:06:42;;;;;;;7.03;1.10;;;18.60;61.20;;;;;;5017026;28;20053;-72
2022/08/05 10:09:26;;;;;;;7.90;1.17;;;18.70;61.20;;;;;;5015846;28;20050;-74
2022/08/05 10:12:09;;;;;;;4.15;1.08;;;18.80;60.40;;;;;;5016995;28;20049;-72
2022/08/05 10:15:25;;;;;;;6.72;1.13;;;18.90;59.90;;;;;;5016591;28;20046;-76
2022/08/05 10:18:21;;;;;;;2.50;0.90;;;19.00;59.40;;;;;;5003444;28;20054;-70
2022/08/05 10:20:51;;;;;;;4.93;1.00;;;19.10;59.90;;;;;;5017734;28;20054;-76
2022/08/05 10:23:31;;;;;;;4.35;0.90;;;19.20;59.10;;;;;;5017196;28;20057;-73
2022/08/05 10:26:19;;;;;;;5.47;1.25;;;19.30;59.10;;;;;;5017374;28;20041;-76
2022/08/05 10:28:58;;;;;;;9.35;1.30;;;19.40;59.10;;;;;;5014726;28;20369;-77
2022/08/05 10:31:28;;;;;;;3.83;1.10;;;19.40;58.80;;;;;;5017324;28;20050;-77
2022/08/05 10:34:16;;;;;;;4.07;0.90;;;19.40;59.30;;;;;;5016708;28;20361;-77
2022/08/05 10:36:52;;;;;;;5.55;1.38;;;19.40;58.20;;;;;;5017036;28;20054;-79
2022/08/05 10:39:31;;;;;;;6.07;1.10;;;19.40;59.20;;;;;;5016139;28;20068;-81
2022/08/05 10:42:35;;;;;;;4.20;0.88;;;19.50;58.80;;;;;;4998851;28;20060;-81
2022/08/05 10:45:37;;;;;;;;;;;19.50;58.60;;;;;;5005057;28;20515;-72
2022/08/05 10:48:31;;;;;;;4.45;0.90;;;19.60;57.40;;;;;;5015380;28;19944;-73
2022/08/05 10:51:20;;;;;;;4.32;1.10;;;19.70;57.00;;;;;;5035492;28;20118;-71
2022/08/05 10:53:59;;;;;;;3.65;1.15;;;19.70;57.50;;;;;;5037246;28;20045;-72
2022/08/05 10:56:35;;;;;;;7.75;1.08;;;19.70;57.50;;;;;;5068222;28;20404;-71
2022/08/05 10:59:06;;;;;;;3.55;0.90;;;19.80;57.40;;;;;;5036942;28;20371;-72
2022/08/05 11:02:26;;;;;;;8.20;0.95;;;19.80;57.40;;;;;;5036009;28;20041;-71
2022/08/05 11:05:09;;;;;;;5.95;0.98;;;19.70;56.20;;;;;;5017422;28;20057;-73
2022/08/05 11:07:56;;;;;;;8.43;1.30;;;19.80;57.20;;;;;;5036418;28;20445;-71
2022/08/05 11:10:31;;;;;;;4.15;0.90;;;19.80;57.10;;;;;;5037001;28;20345;-72
2022/08/05 11:13:07;;;;;;;7.53;1.40;;;19.90;57.60;;;;;;5036517;28;20060;-77
2022/08/05 11:15:40;;;;;;;6.05;1.13;;;20.00;57.00;;;;;;5035836;28;20060;-72
2022/08/05 11:18:32;;;;;;;6.15;1.40;;;20.10;57.20;;;;;;5036782;28;20052;-71
2022/08/05 11:21:04;;;;;;;8.07;1.15;;;20.30;57.10;;;;;;5035374;28;20472;-72
2022/08/05 11:23:53;;;;;;;7.40;1.27;;;20.30;57.40;;;;;;5035767;28;20045;-72
2022/08/05 11:26:41;;;;;;;7.30;1.15;;;20.10;56.70;;;;;;5036334;28;20064;-71
2022/08/05 11:29:34;;;;;;;5.25;1.10;;;20.10;57.20;;;;;;5035860;28;20045;-71
2022/08/05 11:32:27;;;;;;;6.00;1.20;;;20.30;57.40;;;;;;5035591;28;20037;-71
2022/08/05 11:34:56;;;;;;;11.27;1.10;;;20.50;56.70;;;;;;5051833;28;20064;-73
2022/08/05 11:37:58;;;;;;;4.78;1.00;;;20.70;56.90;;;;;;5036142;28;20052;-73
2022/08/05 11:40:57;;;;;;;5.47;1.15;;;20.70;55.80;;;;;;5036545;28;20045;-73
2022/08/05 11:43:54;;;;;;;6.65;1.02;;;20.70;56.10;;;;;;5035740;28;20048;-72
2022/08/05 11:46:35;;;;;;;6.00;1.10;;;20.80;56.40;;;;;;5035989;28;20060;-73
2022/08/05 11:49:06;;;;;;;8.05;1.55;;;21.00;55.80;;;;;;5034817;28;20049;-73
2022/08/05 11:51:36;;;;;;;5.03;1.30;;;21.30;55.40;;;;;;5036352;28;20125;-72
2022/08/05 11:54:23;;;;;;;6.93;1.20;;;21.60;55.20;;;;;;5062534;28;20468;-73
2022/08/05 11:57:02;;;;;;;5.03;0.90;;;21.90;55.00;;;;;;5001075;28;20050;-74
2022/08/05 11:59:50;;;;;;;6.68;1.15;;;22.10;54.50;;;;;;5016391;28;20046;-74
2022/08/05 12:02:23;;;;;;;;;;;22.10;55.20;;;;;;4998198;28;20087;-74
2022/08/05 12:05:28;;;;;;;3.63;1.15;;;22.10;54.30;;;;;;5000369;28;19940;-73
2022/08/05 12:08:09;;;;;;;6.60;1.13;;;22.10;54.40;;;;;;5015403;28;20054;-77
2022/08/05 12:10:47;;;;;;;3.17;0.98;;;22.10;54.40;;;;;;5016065;28;20465;-73
2022/08/05 12:13:21;;;;;;;4.93;1.10;;;22.00;53.30;;;;;;5015903;28;20468;-74
2022/08/05 12:16:16;;;;;;;6.35;1.73;;;21.90;53.50;;;;;;5014693;28;20475;-75
2022/08/05 12:18:45;;;;;;;7.35;1.30;;;21.90;53.70;;;;;;5016368;28;20038;-75
2022/08/05 12:21:25;;;;;;;5.15;1.30;;;22.00;53.60;;;;;;5014010;28;20061;-74
2022/08/05 12:24:04;;;;;;;7.70;1.90;;;22.20;53.10;;;;;;5015787;28;20042;-77
2022/08/05 12:26:39;;;;;;;4.15;1.23;;;22.20;53.80;;;;;;4998122;28;20061;-74
2022/08/05 12:29:22;;;;;;;6.68;1.58;;;22.40;53.40;;;;;;4978598;28;20043;-74
2022/08/05 12:32:01;;;;;;;4.93;1.40;;;22.70;53.40;;;;;;4995106;28;20054;-78
2022/08/05 12:34:35;;;;;;;4.97;1.55;;;23.00;53.00;;;;;;4995185;28;20358;-79
2022/08/05 12:37:13;;;;;;;4.93;1.40;;;23.30;52.90;;;;;;4995503;28;20051;-78
2022/08/05 12:39:57;;;;;;;5.82;1.20;;;23.40;52.40;;;;;;4996208;28;20446;-78
2022/08/05 12:42:41;;;;;;;4.35;1.27;;;23.30;52.40;;;;;;4995353;28;20057;-80
2022/08/05 12:45:09;;;;;;;5.70;1.27;;;23.20;52.70;;;;;;4995456;28;20039;-74
2022/08/05 12:47:37;;;;;;;5.97;1.27;;;23.10;52.70;;;;;;4994686;28;20050;-78
2022/08/05 12:50:25;;;;;;;3.90;1.00;;;23.00;52.50;;;;;;4978610;28;20454;-74
2022/08/05 12:52:58;;;;;;;11.27;1.40;;;22.90;52.40;;;;;;4995459;28;20042;-79
2022/08/05 12:55:29;;;;;;;3.97;1.00;;;23.10;52.40;;;;;;5005793;28;20137;-77
2022/08/05 12:58:00;;;;;;;4.50;1.00;;;22.90;52.40;;;;;;5014143;28;20053;-78
2022/08/05 13:00:48;;;;;;;6.15;1.08;;;22.70;52.60;;;;;;5015002;28;20488;-78
2022/08/05 13:03:37;;;;;;;5.28;0.82;;;22.80;52.50;;;;;;5014542;28;20046;-74
2022/08/05 13:06:15;;;;;;;4.95;1.40;;;22.80;52.50;;;;;;5014918;28;20057;-76
2022/08/05 13:08:45;;;;;;;4.88;1.33;;;22.80;51.90;;;;;;4996994;28;20473;-76
2022/08/05 13:11:28;;;;;;;5.70;1.38;;;22.80;52.20;;;;;;5015417;28;20053;-73
2022/08/05 13:14:22;;;;;;;4.45;1.10;;;22.70;51.60;;;;;;5014014;28;20064;-72
2022/08/05 13:17:07;;;;;;;7.80;1.55;;;22.70;51.50;;;;;;5015136;28;20053;-72
2022/08/05 13:19:36;;;;;;;4.47;0.93;;;22.60;51.90;;;;;;5014333;28;20046;-73
2022/08/05 13:22:21;;;;;;;4.15;0.90;;;22.50;51.20;;;;;;5014084;28;20057;-73
2022/08/05 13:25:01;;;;;;;4.40;1.00;;;22.40;51.30;;;;;;5014725;28;20488;-74
2022/08/05 13:27:38;;;;;;;5.63;0.90;;;22.50;51.40;;;;;;5013832;28;20373;-72
2022/08/05 13:30:09;;;;;;;6.97;1.42;;;22.70;51.20;;;;;;5015006;28;20034;-72
2022/08/05 13:32:57;;;;;;;3.58;0.80;;;22.90;51.20;;;;;;5014645;28;20045;-71
2022/08/05 13:35:29;;;;;;;4.40;1.10;;;23.20;50.80;;;;;;5013715;28;20053;-72
2022/08/05 13:38:13;;;;;;;4.28;1.02;;;23.30;50.70;;;;;;5015136;28;20445;-72
2022/08/05 13:41:00;;;;;;;6.55;1.20;;;23.30;50.40;;;;;;5014183;28;20369;-76
2022/08/05 13:43:29;;;;;;;5.55;1.10;;;23.10;50.70;;;;;;5013608;28;20064;-73
2022/08/05 13:46:22;;;;;;;3.85;1.00;;;22.90;50.80;;;;;;5001108;28;20069;-81
2022/08/05 13:49:14;;;;;;;4.85;1.05;;;22.70;51.30;;;;;;5012790;28;20070;-77
2022/08/05 13:51:46;;;;;;;7.15;0.90;;;22.20;51.50;;;;;;5015220;28;20056;-78
2022/08/05 13:54:19;;;;;;;2.97;0.77;;;22.30;51.60;;;;;;5013087;28;20053;-79
2022/08/05 13:56:57;;;;;;;3.78;0.90;;;22.20;52.10;;;;;;5014027;28;20053;-82
2022/08/05 13:59:26;;;;;;;4.38;0.95;;;22.40;52.40;;;;;;5014842;28;20038;-79
2022/08/05 14:01:58;;;;;;;7.53;1.08;;;23.20;50.60;;;;;;5014069;28;20050;-79